sensor_id;sensor_type;location;lat;lon;timestamp;temperature;humidity
3778;DHT22;1904;50.076;8.660;2023-09-19T00:00:26;17.70;1.00
3778;DHT22;1904;50.076;8.660;2023-09-19T00:09:06;17.60;1.00
3778;DHT22;1904;50.076;8.660;2023-09-19T00:11:37;17.70;1.00
3778;DHT22;1904;50.076;8.660;2023-09-19T00:14:06;17.70;1.00
3778;DHT22;1904;50.076;8.660;2023-09-19T00:16:48;17.80;1.00
3778;DHT22;1904;50.076;8.660;2023-09-19T00:22:30;17.70;1.00
3778;DHT22;1904;50.076;8.660;2023-09-19T00:25:07;17.70;1.00
3778;DHT22;1904;50.076;8.660;2023-09-19T00:27:37;17.70;1.00
3778;DHT22;1904;50.076;8.660;2023-09-19T00:30:13;17.70;1.00
3778;DHT22;1904;50.076;8.660;2023-09-19T00:32:43;17.80;1.00
3778;DHT22;1904;50.076;8.660;2023-09-19T00:35:36;17.80;1.00
3778;DHT22;1904;50.076;8.660;2023-09-19T00:38:06;17.70;1.00
3778;DHT22;1904;50.076;8.660;2023-09-19T00:40:36;17.70;1.00
3778;DHT22;1904;50.076;8.660;2023-09-19T00:43:06;17.70;1.00
3778;DHT22;1904;50.076;8.660;2023-09-19T00:45:36;17.70;1.00
3778;DHT22;1904;50.076;8.660;2023-09-19T00:48:07;17.70;1.00
3778;DHT22;1904;50.076;8.660;2023-09-19T00:50:37;17.70;1.00
3778;DHT22;1904;50.076;8.660;2023-09-19T00:53:21;17.60;1.00
3778;DHT22;1904;50.076;8.660;2023-09-19T00:56:24;17.60;1.00
3778;DHT22;1904;50.076;8.660;2023-09-19T00:59:12;17.60;1.00
3778;DHT22;1904;50.076;8.660;2023-09-19T01:01:56;17.50;1.00
3778;DHT22;1904;50.076;8.660;2023-09-19T01:04:22;17.60;1.00
3778;DHT22;1904;50.076;8.660;2023-09-19T01:06:54;17.60;1.00
3778;DHT22;1904;50.076;8.660;2023-09-19T01:09:31;17.70;1.00
3778;DHT22;1904;50.076;8.660;2023-09-19T01:12:01;17.70;1.00
3778;DHT22;1904;50.076;8.660;2023-09-19T01:14:44;17.70;1.00
3778;DHT22;1904;50.076;8.660;2023-09-19T01:17:45;17.70;1.00
3778;DHT22;1904;50.076;8.660;2023-09-19T01:20:19;17.70;1.00
3778;DHT22;1904;50.076;8.660;2023-09-19T01:23:11;17.70;1.00
3778;DHT22;1904;50.076;8.660;2023-09-19T01:31:25;17.70;1.00
3778;DHT22;1904;50.076;8.660;2023-09-19T01:33:59;17.70;1.00
3778;DHT22;1904;50.076;8.660;2023-09-19T01:36:33;17.70;1.00
3778;DHT22;1904;50.076;8.660;2023-09-19T01:39:24;17.60;1.00
3778;DHT22;1904;50.076;8.660;2023-09-19T01:42:15;17.70;1.00
3778;DHT22;1904;50.076;8.660;2023-09-19T01:44:59;17.70;1.00
3778;DHT22;1904;50.076;8.660;2023-09-19T01:47:49;17.70;1.00
3778;DHT22;1904;50.076;8.660;2023-09-19T01:50:40;17.60;1.00
3778;DHT22;1904;50.076;8.660;2023-09-19T01:56:22;17.60;1.00
3778;DHT22;1904;50.076;8.660;2023-09-19T01:58:58;17.60;1.00
3778;DHT22;1904;50.076;8.660;2023-09-19T02:01:48;17.50;1.00
3778;DHT22;1904;50.076;8.660;2023-09-19T02:04:19;17.50;1.00
3778;DHT22;1904;50.076;8.660;2023-09-19T02:06:48;17.40;1.00
3778;DHT22;1904;50.076;8.660;2023-09-19T02:09:19;17.30;1.00
3778;DHT22;1904;50.076;8.660;2023-09-19T02:11:48;17.40;1.00
3778;DHT22;1904;50.076;8.660;2023-09-19T02:14:18;17.40;1.00
3778;DHT22;1904;50.076;8.660;2023-09-19T02:17:00;17.40;1.00
3778;DHT22;1904;50.076;8.660;2023-09-19T02:19:36;17.40;1.00
3778;DHT22;1904;50.076;8.660;2023-09-19T02:22:04;17.30;1.00
3778;DHT22;1904;50.076;8.660;2023-09-19T02:24:38;17.20;1.00
3778;DHT22;1904;50.076;8.660;2023-09-19T02:27:06;17.20;1.00
3778;DHT22;1904;50.076;8.660;2023-09-19T02:29:48;17.10;1.00
3778;DHT22;1904;50.076;8.660;2023-09-19T02:32:30;17.00;1.00
3778;DHT22;1904;50.076;8.660;2023-09-19T02:35:13;17.00;1.00
3778;DHT22;1904;50.076;8.660;2023-09-19T02:37:42;16.80;1.00
3778;DHT22;1904;50.076;8.660;2023-09-19T02:40:13;16.80;1.00
3778;DHT22;1904;50.076;8.660;2023-09-19T02:42:52;16.80;1.00
3778;DHT22;1904;50.076;8.660;2023-09-19T02:45:19;16.70;1.00
3778;DHT22;1904;50.076;8.660;2023-09-19T02:48:06;16.70;1.00
3778;DHT22;1904;50.076;8.660;2023-09-19T02:50:43;16.60;1.00
3778;DHT22;1904;50.076;8.660;2023-09-19T02:53:25;16.60;1.20
3778;DHT22;1904;50.076;8.660;2023-09-19T02:59:12;16.40;4.10
3778;DHT22;1904;50.076;8.660;2023-09-19T03:02:12;16.40;5.90
3778;DHT22;1904;50.076;8.660;2023-09-19T03:11:48;16.20;12.30
3778;DHT22;1904;50.076;8.660;2023-09-19T03:24:04;16.00;21.10
3778;DHT22;1904;50.076;8.660;2023-09-19T03:26:31;16.00;24.40
3778;DHT22;1904;50.076;8.660;2023-09-19T03:36:06;16.00;25.80
3778;DHT22;1904;50.076;8.660;2023-09-19T03:38:33;15.90;25.90
3778;DHT22;1904;50.076;8.660;2023-09-19T03:44:36;15.90;31.20
3778;DHT22;1904;50.076;8.660;2023-09-19T03:50:24;15.80;38.20
3778;DHT22;1904;50.076;8.660;2023-09-19T03:59:33;15.80;37.10
3778;DHT22;1904;50.076;8.660;2023-09-19T04:02:01;15.80;32.70
3778;DHT22;1904;50.076;8.660;2023-09-19T04:04:43;15.70;36.80
3778;DHT22;1904;50.076;8.660;2023-09-19T04:07:08;15.70;34.20
3778;DHT22;1904;50.076;8.660;2023-09-19T04:10:00;15.70;32.40
3778;DHT22;1904;50.076;8.660;2023-09-19T04:19:06;15.60;29.40
3778;DHT22;1904;50.076;8.660;2023-09-19T04:21:54;15.70;31.40
3778;DHT22;1904;50.076;8.660;2023-09-19T04:31:04;15.80;29.50
3778;DHT22;1904;50.076;8.660;2023-09-19T04:36:51;16.00;21.30
3778;DHT22;1904;50.076;8.660;2023-09-19T04:39:25;16.00;16.00
3778;DHT22;1904;50.076;8.660;2023-09-19T04:42:13;16.00;10.80
3778;DHT22;1904;50.076;8.660;2023-09-19T04:48:02;16.00;5.30
3778;DHT22;1904;50.076;8.660;2023-09-19T04:53:49;15.90;1.70
3778;DHT22;1904;50.076;8.660;2023-09-19T04:59:49;15.90;1.00
3778;DHT22;1904;50.076;8.660;2023-09-19T05:05:37;16.00;1.00
3778;DHT22;1904;50.076;8.660;2023-09-19T05:14:47;15.90;1.00
3778;DHT22;1904;50.076;8.660;2023-09-19T05:20:54;15.80;1.00
3778;DHT22;1904;50.076;8.660;2023-09-19T05:33:48;15.90;1.00
3778;DHT22;1904;50.076;8.660;2023-09-19T05:36:15;15.90;1.00
3778;DHT22;1904;50.076;8.660;2023-09-19T05:48:59;15.90;1.00
3778;DHT22;1904;50.076;8.660;2023-09-19T05:58:09;16.00;1.00
3778;DHT22;1904;50.076;8.660;2023-09-19T06:11:06;16.20;1.00
3778;DHT22;1904;50.076;8.660;2023-09-19T06:13:48;16.40;1.00
3778;DHT22;1904;50.076;8.660;2023-09-19T06:20:00;16.60;1.00
3778;DHT22;1904;50.076;8.660;2023-09-19T06:22:26;16.70;1.00
3778;DHT22;1904;50.076;8.660;2023-09-19T06:25:13;16.70;1.00
3778;DHT22;1904;50.076;8.660;2023-09-19T06:27:55;16.90;1.00
3778;DHT22;1904;50.076;8.660;2023-09-19T06:33:43;16.90;1.00
3778;DHT22;1904;50.076;8.660;2023-09-19T06:42:53;17.10;1.00
3778;DHT22;1904;50.076;8.660;2023-09-19T06:48:59;17.20;1.00
3778;DHT22;1904;50.076;8.660;2023-09-19T06:57:59;17.40;1.00
3778;DHT22;1904;50.076;8.660;2023-09-19T07:03:55;17.60;1.00
3778;DHT22;1904;50.076;8.660;2023-09-19T07:12:45;17.60;1.00
3778;DHT22;1904;50.076;8.660;2023-09-19T07:21:55;17.60;1.00
3778;DHT22;1904;50.076;8.660;2023-09-19T07:27:43;17.70;1.00
3778;DHT22;1904;50.076;8.660;2023-09-19T07:43:37;18.10;1.00
3778;DHT22;1904;50.076;8.660;2023-09-19T07:46:08;18.00;1.00
3778;DHT22;1904;50.076;8.660;2023-09-19T07:48:37;18.10;1.00
3778;DHT22;1904;50.076;8.660;2023-09-19T07:51:19;18.20;1.00
3778;DHT22;1904;50.076;8.660;2023-09-19T07:54:01;18.30;1.00
3778;DHT22;1904;50.076;8.660;2023-09-19T07:56:26;18.40;1.00
3778;DHT22;1904;50.076;8.660;2023-09-19T07:58:53;18.40;1.00
3778;DHT22;1904;50.076;8.660;2023-09-19T08:01:19;18.60;1.00
3778;DHT22;1904;50.076;8.660;2023-09-19T08:03:44;18.60;1.00
3778;DHT22;1904;50.076;8.660;2023-09-19T08:06:11;18.50;1.00
3778;DHT22;1904;50.076;8.660;2023-09-19T08:08:37;18.60;1.00
3778;DHT22;1904;50.076;8.660;2023-09-19T08:11:04;18.60;1.00
3778;DHT22;1904;50.076;8.660;2023-09-19T08:13:41;18.80;1.00
3778;DHT22;1904;50.076;8.660;2023-09-19T08:16:13;18.80;1.00
3778;DHT22;1904;50.076;8.660;2023-09-19T08:18:41;18.90;1.00
3778;DHT22;1904;50.076;8.660;2023-09-19T08:21:13;19.00;1.00
3778;DHT22;1904;50.076;8.660;2023-09-19T08:23:40;18.90;1.00
3778;DHT22;1904;50.076;8.660;2023-09-19T08:26:06;19.00;1.00
3778;DHT22;1904;50.076;8.660;2023-09-19T08:28:36;19.00;1.00
3778;DHT22;1904;50.076;8.660;2023-09-19T08:31:06;19.10;1.00
3778;DHT22;1904;50.076;8.660;2023-09-19T08:33:36;19.10;1.00
3778;DHT22;1904;50.076;8.660;2023-09-19T08:36:03;18.90;1.00
3778;DHT22;1904;50.076;8.660;2023-09-19T08:38:54;19.00;1.00
3778;DHT22;1904;50.076;8.660;2023-09-19T08:41:31;19.00;1.00
3778;DHT22;1904;50.076;8.660;2023-09-19T08:47:28;19.20;1.00
3778;DHT22;1904;50.076;8.660;2023-09-19T08:50:11;19.10;1.00
3778;DHT22;1904;50.076;8.660;2023-09-19T08:52:43;19.00;1.00
3778;DHT22;1904;50.076;8.660;2023-09-19T08:55:42;18.90;1.00
3778;DHT22;1904;50.076;8.660;2023-09-19T08:58:14;18.90;1.00
3778;DHT22;1904;50.076;8.660;2023-09-19T09:00:45;19.10;1.00
3778;DHT22;1904;50.076;8.660;2023-09-19T09:03:36;18.90;1.00
3778;DHT22;1904;50.076;8.660;2023-09-19T09:09:13;19.20;1.00
3778;DHT22;1904;50.076;8.660;2023-09-19T09:11:43;19.20;1.00
3778;DHT22;1904;50.076;8.660;2023-09-19T09:14:25;19.10;1.00
3778;DHT22;1904;50.076;8.660;2023-09-19T09:17:24;19.10;1.00
3778;DHT22;1904;50.076;8.660;2023-09-19T09:19:55;19.00;1.00
3778;DHT22;1904;50.076;8.660;2023-09-19T09:22:25;19.10;1.00
3778;DHT22;1904;50.076;8.660;2023-09-19T09:28:01;19.30;1.00
3778;DHT22;1904;50.076;8.660;2023-09-19T09:30:37;19.40;1.00
3778;DHT22;1904;50.076;8.660;2023-09-19T09:33:14;19.40;1.00
3778;DHT22;1904;50.076;8.660;2023-09-19T09:35:54;19.40;1.00
3778;DHT22;1904;50.076;8.660;2023-09-19T09:38:57;19.40;1.00
3778;DHT22;1904;50.076;8.660;2023-09-19T09:41:36;19.50;1.00
3778;DHT22;1904;50.076;8.660;2023-09-19T09:44:17;19.60;1.00
3778;DHT22;1904;50.076;8.660;2023-09-19T09:46:47;19.60;1.00
3778;DHT22;1904;50.076;8.660;2023-09-19T09:49:42;19.50;1.00
3778;DHT22;1904;50.076;8.660;2023-09-19T09:56:07;19.50;1.00
3778;DHT22;1904;50.076;8.660;2023-09-19T10:02:02;19.20;1.00
3778;DHT22;1904;50.076;8.660;2023-09-19T10:04:37;19.10;1.00
3778;DHT22;1904;50.076;8.660;2023-09-19T10:07:39;19.10;1.00
3778;DHT22;1904;50.076;8.660;2023-09-19T10:10:08;19.10;1.00
3778;DHT22;1904;50.076;8.660;2023-09-19T10:12:48;19.20;1.00
3778;DHT22;1904;50.076;8.660;2023-09-19T10:15:18;19.20;1.00
3778;DHT22;1904;50.076;8.660;2023-09-19T10:18:01;19.10;1.00
3778;DHT22;1904;50.076;8.660;2023-09-19T10:20:30;18.90;1.00
3778;DHT22;1904;50.076;8.660;2023-09-19T10:23:13;19.00;1.00
3778;DHT22;1904;50.076;8.660;2023-09-19T10:25:43;19.10;1.00
3778;DHT22;1904;50.076;8.660;2023-09-19T10:28:28;19.10;1.00
3778;DHT22;1904;50.076;8.660;2023-09-19T10:31:19;19.20;1.00
3778;DHT22;1904;50.076;8.660;2023-09-19T10:33:49;19.40;1.00
3778;DHT22;1904;50.076;8.660;2023-09-19T10:36:19;19.60;1.00
3778;DHT22;1904;50.076;8.660;2023-09-19T10:38:49;19.60;1.00
3778;DHT22;1904;50.076;8.660;2023-09-19T10:41:22;19.50;1.00
3778;DHT22;1904;50.076;8.660;2023-09-19T10:43:50;19.90;1.00
3778;DHT22;1904;50.076;8.660;2023-09-19T10:46:19;20.40;1.00
3778;DHT22;1904;50.076;8.660;2023-09-19T10:48:50;20.50;1.00
3778;DHT22;1904;50.076;8.660;2023-09-19T10:51:38;20.50;1.00
3778;DHT22;1904;50.076;8.660;2023-09-19T10:54:13;20.40;1.00
3778;DHT22;1904;50.076;8.660;2023-09-19T11:00:18;20.40;1.00
3778;DHT22;1904;50.076;8.660;2023-09-19T11:06:11;20.30;1.00
3778;DHT22;1904;50.076;8.660;2023-09-19T11:09:07;20.40;1.00
3778;DHT22;1904;50.076;8.660;2023-09-19T11:11:41;20.60;1.00
3778;DHT22;1904;50.076;8.660;2023-09-19T11:31:43;20.90;1.00
3778;DHT22;1904;50.076;8.660;2023-09-19T11:34:45;21.20;1.00
3778;DHT22;1904;50.076;8.660;2023-09-19T11:40:18;21.20;1.00
3778;DHT22;1904;50.076;8.660;2023-09-19T11:43:39;21.30;1.00
3778;DHT22;1904;50.076;8.660;2023-09-19T11:46:07;21.00;1.00
3778;DHT22;1904;50.076;8.660;2023-09-19T11:48:38;21.20;1.00
3778;DHT22;1904;50.076;8.660;2023-09-19T11:51:14;21.20;1.00
3778;DHT22;1904;50.076;8.660;2023-09-19T11:53:49;21.20;1.00
3778;DHT22;1904;50.076;8.660;2023-09-19T11:56:25;20.80;1.00
3778;DHT22;1904;50.076;8.660;2023-09-19T11:58:57;20.80;1.00
3778;DHT22;1904;50.076;8.660;2023-09-19T12:01:32;21.00;1.00
3778;DHT22;1904;50.076;8.660;2023-09-19T12:04:02;21.30;1.00
3778;DHT22;1904;50.076;8.660;2023-09-19T12:06:30;21.50;1.00
3778;DHT22;1904;50.076;8.660;2023-09-19T12:08:58;21.50;1.00
3778;DHT22;1904;50.076;8.660;2023-09-19T12:11:42;21.50;1.00
3778;DHT22;1904;50.076;8.660;2023-09-19T12:14:22;21.50;1.00
3778;DHT22;1904;50.076;8.660;2023-09-19T12:16:55;21.60;1.00
3778;DHT22;1904;50.076;8.660;2023-09-19T12:19:31;21.80;1.00
3778;DHT22;1904;50.076;8.660;2023-09-19T12:22:02;22.00;1.00
3778;DHT22;1904;50.076;8.660;2023-09-19T12:24:43;21.90;1.00
3778;DHT22;1904;50.076;8.660;2023-09-19T12:27:13;22.10;1.00
3778;DHT22;1904;50.076;8.660;2023-09-19T12:29:47;22.10;1.00
3778;DHT22;1904;50.076;8.660;2023-09-19T12:32:36;22.20;1.00
3778;DHT22;1904;50.076;8.660;2023-09-19T12:35:30;22.40;1.00
3778;DHT22;1904;50.076;8.660;2023-09-19T12:38:01;22.00;1.00
3778;DHT22;1904;50.076;8.660;2023-09-19T12:40:38;21.90;1.00
3778;DHT22;1904;50.076;8.660;2023-09-19T12:43:13;21.70;1.00
3778;DHT22;1904;50.076;8.660;2023-09-19T12:45:49;21.80;1.00
3778;DHT22;1904;50.076;8.660;2023-09-19T12:48:31;21.80;1.00
3778;DHT22;1904;50.076;8.660;2023-09-19T12:51:02;22.00;1.00
3778;DHT22;1904;50.076;8.660;2023-09-19T12:53:43;22.00;1.00
3778;DHT22;1904;50.076;8.660;2023-09-19T12:56:19;22.10;1.00
3778;DHT22;1904;50.076;8.660;2023-09-19T12:58:56;22.20;1.00
3778;DHT22;1904;50.076;8.660;2023-09-19T13:01:25;22.40;1.00
3778;DHT22;1904;50.076;8.660;2023-09-19T13:06:43;22.40;1.00
3778;DHT22;1904;50.076;8.660;2023-09-19T13:09:10;22.40;1.00
3778;DHT22;1904;50.076;8.660;2023-09-19T13:11:38;22.30;1.00
3778;DHT22;1904;50.076;8.660;2023-09-19T13:14:36;22.20;1.00
3778;DHT22;1904;50.076;8.660;2023-09-19T13:17:10;22.50;1.00
3778;DHT22;1904;50.076;8.660;2023-09-19T13:19:49;22.70;1.00
3778;DHT22;1904;50.076;8.660;2023-09-19T13:22:41;22.60;1.00
3778;DHT22;1904;50.076;8.660;2023-09-19T13:25:15;22.60;1.00
3778;DHT22;1904;50.076;8.660;2023-09-19T13:27:55;21.00;1.00
3778;DHT22;1904;50.076;8.660;2023-09-19T13:30:28;22.70;1.00
3778;DHT22;1904;50.076;8.660;2023-09-19T13:33:06;22.90;1.00
3778;DHT22;1904;50.076;8.660;2023-09-19T13:35:33;22.90;1.00
3778;DHT22;1904;50.076;8.660;2023-09-19T13:38:07;23.10;1.00
3778;DHT22;1904;50.076;8.660;2023-09-19T13:40:38;23.20;1.00
3778;DHT22;1904;50.076;8.660;2023-09-19T13:43:13;23.30;1.00
3778;DHT22;1904;50.076;8.660;2023-09-19T13:45:39;23.60;1.00
3778;DHT22;1904;50.076;8.660;2023-09-19T13:48:13;23.50;1.00
3778;DHT22;1904;50.076;8.660;2023-09-19T13:50:43;23.50;1.00
3778;DHT22;1904;50.076;8.660;2023-09-19T13:53:19;23.10;1.00
3778;DHT22;1904;50.076;8.660;2023-09-19T13:55:45;22.90;1.00
3778;DHT22;1904;50.076;8.660;2023-09-19T13:58:42;22.70;1.00
3778;DHT22;1904;50.076;8.660;2023-09-19T14:01:42;22.80;1.00
3778;DHT22;1904;50.076;8.660;2023-09-19T14:04:42;22.90;1.00
3778;DHT22;1904;50.076;8.660;2023-09-19T14:07:13;22.90;1.00
3778;DHT22;1904;50.076;8.660;2023-09-19T14:12:13;22.90;1.00
3778;DHT22;1904;50.076;8.660;2023-09-19T14:14:43;22.80;1.00
3778;DHT22;1904;50.076;8.660;2023-09-19T14:17:13;22.60;1.00
3778;DHT22;1904;50.076;8.660;2023-09-19T14:19:55;22.50;1.00
3778;DHT22;1904;50.076;8.660;2023-09-19T14:22:25;22.60;1.00
3778;DHT22;1904;50.076;8.660;2023-09-19T14:25:07;22.60;1.00
3778;DHT22;1904;50.076;8.660;2023-09-19T14:34:13;22.60;1.00
3778;DHT22;1904;50.076;8.660;2023-09-19T14:36:43;22.70;1.00
3778;DHT22;1904;50.076;8.660;2023-09-19T14:39:19;22.60;1.00
3778;DHT22;1904;50.076;8.660;2023-09-19T14:41:45;22.60;1.00
3778;DHT22;1904;50.076;8.660;2023-09-19T14:44:10;22.60;1.00
3778;DHT22;1904;50.076;8.660;2023-09-19T14:46:37;22.70;1.00
3778;DHT22;1904;50.076;8.660;2023-09-19T14:49:03;22.70;1.00
3778;DHT22;1904;50.076;8.660;2023-09-19T14:51:43;22.70;1.00
3778;DHT22;1904;50.076;8.660;2023-09-19T14:54:13;22.80;1.00
3778;DHT22;1904;50.076;8.660;2023-09-19T14:57:12;22.90;1.00
3778;DHT22;1904;50.076;8.660;2023-09-19T15:03:02;23.00;1.00
3778;DHT22;1904;50.076;8.660;2023-09-19T15:05:31;23.10;1.00
3778;DHT22;1904;50.076;8.660;2023-09-19T15:11:14;23.80;1.00
3778;DHT22;1904;50.076;8.660;2023-09-19T15:14:12;23.90;1.00
3778;DHT22;1904;50.076;8.660;2023-09-19T15:17:12;24.10;1.00
3778;DHT22;1904;50.076;8.660;2023-09-19T15:20:12;24.10;1.00
3778;DHT22;1904;50.076;8.660;2023-09-19T15:22:43;24.30;1.00
3778;DHT22;1904;50.076;8.660;2023-09-19T15:35:08;25.90;1.00
3778;DHT22;1904;50.076;8.660;2023-09-19T15:37:43;26.50;1.00
3778;DHT22;1904;50.076;8.660;2023-09-19T15:40:46;27.60;1.00
3778;DHT22;1904;50.076;8.660;2023-09-19T15:43:13;27.60;1.00
3778;DHT22;1904;50.076;8.660;2023-09-19T15:46:00;27.10;1.00
3778;DHT22;1904;50.076;8.660;2023-09-19T15:48:59;27.40;1.00
3778;DHT22;1904;50.076;8.660;2023-09-19T15:51:26;28.10;1.00
3778;DHT22;1904;50.076;8.660;2023-09-19T15:54:11;28.40;1.00
3778;DHT22;1904;50.076;8.660;2023-09-19T15:57:12;28.50;1.00
3778;DHT22;1904;50.076;8.660;2023-09-19T15:59:43;28.30;1.00
3778;DHT22;1904;50.076;8.660;2023-09-19T16:02:19;28.10;1.00
3778;DHT22;1904;50.076;8.660;2023-09-19T16:05:12;27.40;1.00
3778;DHT22;1904;50.076;8.660;2023-09-19T16:07:43;27.20;1.00
3778;DHT22;1904;50.076;8.660;2023-09-19T16:10:13;27.20;1.00
3778;DHT22;1904;50.076;8.660;2023-09-19T16:12:43;26.60;1.00
3778;DHT22;1904;50.076;8.660;2023-09-19T16:15:13;26.50;1.00
3778;DHT22;1904;50.076;8.660;2023-09-19T16:18:12;27.10;1.00
3778;DHT22;1904;50.076;8.660;2023-09-19T16:20:43;27.60;1.00
3778;DHT22;1904;50.076;8.660;2023-09-19T16:23:13;27.50;1.00
3778;DHT22;1904;50.076;8.660;2023-09-19T16:25:43;27.00;1.00
3778;DHT22;1904;50.076;8.660;2023-09-19T16:28:13;26.90;1.00
3778;DHT22;1904;50.076;8.660;2023-09-19T16:30:43;26.70;1.00
3778;DHT22;1904;50.076;8.660;2023-09-19T16:33:13;26.40;1.00
3778;DHT22;1904;50.076;8.660;2023-09-19T16:35:43;25.70;1.00
3778;DHT22;1904;50.076;8.660;2023-09-19T16:38:25;24.90;1.00
3778;DHT22;1904;50.076;8.660;2023-09-19T16:41:12;24.40;1.00
3778;DHT22;1904;50.076;8.660;2023-09-19T16:43:46;23.60;1.00
3778;DHT22;1904;50.076;8.660;2023-09-19T16:46:13;23.50;1.00
3778;DHT22;1904;50.076;8.660;2023-09-19T16:48:44;23.50;1.00
3778;DHT22;1904;50.076;8.660;2023-09-19T16:51:14;23.10;1.00
3778;DHT22;1904;50.076;8.660;2023-09-19T16:53:43;22.80;1.00
3778;DHT22;1904;50.076;8.660;2023-09-19T16:56:42;22.60;1.00
3778;DHT22;1904;50.076;8.660;2023-09-19T16:59:13;22.40;1.00
3778;DHT22;1904;50.076;8.660;2023-09-19T17:01:43;22.30;1.00
3778;DHT22;1904;50.076;8.660;2023-09-19T17:04:13;22.10;1.00
3778;DHT22;1904;50.076;8.660;2023-09-19T17:06:43;21.90;1.00
3778;DHT22;1904;50.076;8.660;2023-09-19T17:09:42;21.70;1.00
3778;DHT22;1904;50.076;8.660;2023-09-19T17:12:13;21.60;1.00
3778;DHT22;1904;50.076;8.660;2023-09-19T17:18:07;21.30;1.00
3778;DHT22;1904;50.076;8.660;2023-09-19T17:20:32;21.30;1.00
3778;DHT22;1904;50.076;8.660;2023-09-19T17:22:58;21.20;1.00
3778;DHT22;1904;50.076;8.660;2023-09-19T17:28:13;21.00;1.00
3778;DHT22;1904;50.076;8.660;2023-09-19T17:30:39;20.90;1.00
3778;DHT22;1904;50.076;8.660;2023-09-19T17:36:26;20.80;1.00
3778;DHT22;1904;50.076;8.660;2023-09-19T17:46:13;20.60;1.00
3778;DHT22;1904;50.076;8.660;2023-09-19T17:48:59;20.60;1.00
3778;DHT22;1904;50.076;8.660;2023-09-19T17:51:25;20.50;1.00
3778;DHT22;1904;50.076;8.660;2023-09-19T17:53:53;20.40;1.00
3778;DHT22;1904;50.076;8.660;2023-09-19T17:56:37;20.40;1.00
3778;DHT22;1904;50.076;8.660;2023-09-19T17:59:07;20.40;1.00
3778;DHT22;1904;50.076;8.660;2023-09-19T18:01:33;20.40;1.00
3778;DHT22;1904;50.076;8.660;2023-09-19T18:07:21;20.40;1.00
3778;DHT22;1904;50.076;8.660;2023-09-19T18:09:49;20.30;1.00
3778;DHT22;1904;50.076;8.660;2023-09-19T18:12:31;20.20;1.00
3778;DHT22;1904;50.076;8.660;2023-09-19T18:15:07;20.10;1.00
3778;DHT22;1904;50.076;8.660;2023-09-19T18:17:55;20.10;1.00
3778;DHT22;1904;50.076;8.660;2023-09-19T18:20:20;20.10;1.00
3778;DHT22;1904;50.076;8.660;2023-09-19T18:22:48;20.10;1.00
3778;DHT22;1904;50.076;8.660;2023-09-19T18:25:19;20.10;1.00
3778;DHT22;1904;50.076;8.660;2023-09-19T18:27:45;20.00;1.00
3778;DHT22;1904;50.076;8.660;2023-09-19T18:30:19;19.90;1.00
3778;DHT22;1904;50.076;8.660;2023-09-19T18:32:47;19.80;1.00
3778;DHT22;1904;50.076;8.660;2023-09-19T18:35:48;19.80;1.00
3778;DHT22;1904;50.076;8.660;2023-09-19T18:38:19;19.60;1.00
3778;DHT22;1904;50.076;8.660;2023-09-19T18:46:33;19.30;1.00
3778;DHT22;1904;50.076;8.660;2023-09-19T18:49:00;19.10;1.00
3778;DHT22;1904;50.076;8.660;2023-09-19T18:51:31;19.10;1.00
3778;DHT22;1904;50.076;8.660;2023-09-19T18:53:58;18.90;1.00
3778;DHT22;1904;50.076;8.660;2023-09-19T18:56:26;18.90;1.00
3778;DHT22;1904;50.076;8.660;2023-09-19T18:58:52;18.90;1.00
3778;DHT22;1904;50.076;8.660;2023-09-19T19:01:17;18.70;1.00
3778;DHT22;1904;50.076;8.660;2023-09-19T19:03:44;18.70;1.00
3778;DHT22;1904;50.076;8.660;2023-09-19T19:06:15;18.50;1.00
3778;DHT22;1904;50.076;8.660;2023-09-19T19:08:44;18.50;1.00
3778;DHT22;1904;50.076;8.660;2023-09-19T19:11:13;18.50;1.00
3778;DHT22;1904;50.076;8.660;2023-09-19T19:20:58;18.30;1.00
3778;DHT22;1904;50.076;8.660;2023-09-19T19:26:26;18.10;1.00
3778;DHT22;1904;50.076;8.660;2023-09-19T19:28:55;18.10;1.00
3778;DHT22;1904;50.076;8.660;2023-09-19T19:31:21;18.00;1.00
3778;DHT22;1904;50.076;8.660;2023-09-19T19:34:08;17.90;1.00
3778;DHT22;1904;50.076;8.660;2023-09-19T19:36:43;17.80;1.00
3778;DHT22;1904;50.076;8.660;2023-09-19T19:39:31;17.70;1.00
3778;DHT22;1904;50.076;8.660;2023-09-19T19:42:13;17.70;1.00
3778;DHT22;1904;50.076;8.660;2023-09-19T19:44:49;17.60;1.00
3778;DHT22;1904;50.076;8.660;2023-09-19T19:47:19;17.50;1.00
3778;DHT22;1904;50.076;8.660;2023-09-19T19:49:49;17.50;1.00
3778;DHT22;1904;50.076;8.660;2023-09-19T19:52:37;17.40;1.00
3778;DHT22;1904;50.076;8.660;2023-09-19T19:55:02;17.40;1.00
3778;DHT22;1904;50.076;8.660;2023-09-19T19:57:29;17.30;1.00
3778;DHT22;1904;50.076;8.660;2023-09-19T19:59:56;17.20;1.00
3778;DHT22;1904;50.076;8.660;2023-09-19T20:02:22;17.20;1.00
3778;DHT22;1904;50.076;8.660;2023-09-19T20:04:48;17.20;1.00
3778;DHT22;1904;50.076;8.660;2023-09-19T20:07:19;17.10;1.00
3778;DHT22;1904;50.076;8.660;2023-09-19T20:09:55;17.10;1.00
3778;DHT22;1904;50.076;8.660;2023-09-19T20:12:49;17.10;1.00
3778;DHT22;1904;50.076;8.660;2023-09-19T20:15:25;17.20;1.00
3778;DHT22;1904;50.076;8.660;2023-09-19T20:17:55;17.20;1.00
3778;DHT22;1904;50.076;8.660;2023-09-19T20:20:25;17.10;1.00
3778;DHT22;1904;50.076;8.660;2023-09-19T20:23:13;17.10;1.00
3778;DHT22;1904;50.076;8.660;2023-09-19T20:28:25;17.10;1.00
3778;DHT22;1904;50.076;8.660;2023-09-19T20:34:36;17.10;1.00
3778;DHT22;1904;50.076;8.660;2023-09-19T20:37:07;17.00;1.00
3778;DHT22;1904;50.076;8.660;2023-09-19T20:39:43;17.00;1.00
3778;DHT22;1904;50.076;8.660;2023-09-19T20:42:13;16.90;1.00
3778;DHT22;1904;50.076;8.660;2023-09-19T20:45:07;17.00;1.00
3778;DHT22;1904;50.076;8.660;2023-09-19T20:47:41;16.90;1.00
3778;DHT22;1904;50.076;8.660;2023-09-19T20:50:11;17.00;1.00
3778;DHT22;1904;50.076;8.660;2023-09-19T20:52:37;17.00;1.00
3778;DHT22;1904;50.076;8.660;2023-09-19T20:55:04;17.10;1.00
3778;DHT22;1904;50.076;8.660;2023-09-19T20:57:37;17.00;1.00
3778;DHT22;1904;50.076;8.660;2023-09-19T21:00:08;17.00;1.00
3778;DHT22;1904;50.076;8.660;2023-09-19T21:03:00;17.10;1.00
3778;DHT22;1904;50.076;8.660;2023-09-19T21:05:26;17.10;1.00
3778;DHT22;1904;50.076;8.660;2023-09-19T21:08:12;17.10;1.00
3778;DHT22;1904;50.076;8.660;2023-09-19T21:10:49;17.10;1.00
3778;DHT22;1904;50.076;8.660;2023-09-19T21:13:31;17.20;1.00
3778;DHT22;1904;50.076;8.660;2023-09-19T21:16:13;17.20;1.00
3778;DHT22;1904;50.076;8.660;2023-09-19T21:21:50;17.20;1.00
3778;DHT22;1904;50.076;8.660;2023-09-19T21:24:48;17.20;1.00
3778;DHT22;1904;50.076;8.660;2023-09-19T21:27:25;17.20;1.00
3778;DHT22;1904;50.076;8.660;2023-09-19T21:33:13;17.30;1.00
3778;DHT22;1904;50.076;8.660;2023-09-19T21:39:13;17.30;1.00
3778;DHT22;1904;50.076;8.660;2023-09-19T21:41:43;17.10;1.00
3778;DHT22;1904;50.076;8.660;2023-09-19T21:47:25;17.00;1.00
3778;DHT22;1904;50.076;8.660;2023-09-19T21:50:12;17.10;1.00
3778;DHT22;1904;50.076;8.660;2023-09-19T21:52:43;17.00;1.00
3778;DHT22;1904;50.076;8.660;2023-09-19T21:55:19;17.00;1.00
3778;DHT22;1904;50.076;8.660;2023-09-19T21:58:01;16.90;1.00
3778;DHT22;1904;50.076;8.660;2023-09-19T22:00:31;16.90;1.00
3778;DHT22;1904;50.076;8.660;2023-09-19T22:03:13;16.90;1.00
3778;DHT22;1904;50.076;8.660;2023-09-19T22:05:43;17.00;1.00
3778;DHT22;1904;50.076;8.660;2023-09-19T22:08:13;17.00;1.00
3778;DHT22;1904;50.076;8.660;2023-09-19T22:10:49;17.00;1.00
3778;DHT22;1904;50.076;8.660;2023-09-19T22:13:25;17.00;1.00
3778;DHT22;1904;50.076;8.660;2023-09-19T22:16:13;17.00;1.00
3778;DHT22;1904;50.076;8.660;2023-09-19T22:18:45;17.10;1.00
3778;DHT22;1904;50.076;8.660;2023-09-19T22:21:30;17.00;1.00
3778;DHT22;1904;50.076;8.660;2023-09-19T22:24:07;17.10;1.00
3778;DHT22;1904;50.076;8.660;2023-09-19T22:27:01;17.00;1.00
3778;DHT22;1904;50.076;8.660;2023-09-19T22:29:26;17.00;1.00
3778;DHT22;1904;50.076;8.660;2023-09-19T22:31:54;17.10;1.00